Latest Weather Observations for Point Stuart

IDD60901

Issued at 10:45 pm CST Friday 31 October 2014 (issued every 10 minutes, with the page automatically refreshed every 10 minutes)

About weather observations | Map of Darwin area stations | Latest observations for Darwin area | Other Formats
Station Details ID: 014254 Name: POINT STUART Lat: -12.24 Lon: 131.88 Height: 1.0 m
Data from the previous 72 hours. | See also: Recent months for locations in Northern Territory
Date/Time
CST
Tmp

°C
App
Tmp
°C
Dew
Point
°C
Rel
Hum
%
Delta-T

°C
Wind Press
QNH
hPa
Press
MSL
hPa
Rain
since
9 am
mm
Dir
 
Spd
km/h
Gust
km/h
Spd
kts
Gust
kts
31/10:30pm 27.5 30.4 22.4 73 3.4 NNW 11 17 6 9 1009.6 - 0.0
31/10:00pm 27.8 30.7 22.5 73 3.6 NNW 11 15 6 8 1009.5 - 0.0
31/09:30pm 27.5 30.9 22.7 75 3.3 NNW 9 15 5 8 1009.3 - 0.0
31/09:00pm 27.4 30.5 22.1 73 3.6 NNW 9 15 5 8 1008.9 1008.9 0.0
31/08:30pm 27.8 31.2 22.7 74 3.5 NNW 9 13 5 7 1008.6 - 0.0
31/08:00pm 27.9 31.2 22.6 73 3.6 NNW 9 15 5 8 1008.3 - 0.0
31/07:30pm 28.0 30.9 21.8 69 4.2 NNW 9 15 5 8 1008.1 - 0.0
31/07:00pm 28.3 30.7 21.6 67 4.5 NNW 11 15 6 8 1007.9 - 0.0
31/06:30pm 29.1 31.1 20.8 61 5.5 N 11 17 6 9 1007.8 - 0.0
31/06:00pm 29.9 31.1 20.7 57 6.1 NNW 15 20 8 11 1007.4 1007.4 0.0
31/05:30pm 30.8 31.9 20.4 54 6.9 NNW 15 22 8 12 1007.2 - 0.0
31/05:00pm 31.9 32.5 19.5 47 8.1 NNW 15 22 8 12 1007.2 - 0.0
31/04:30pm 31.9 32.0 17.4 42 9.2 NNW 13 20 7 11 1007.2 - 0.0
31/04:00pm 32.8 32.8 18.2 42 9.4 NNW 15 22 8 12 1007.5 - 0.0
31/03:30pm 32.6 33.0 19.8 46 8.5 NNW 17 26 9 14 1007.9 - 0.0
31/03:00pm 31.7 32.5 20.6 51 7.4 NW 17 26 9 14 1008.2 1008.2 0.0
31/02:30pm 31.4 32.3 20.0 50 7.5 NNW 15 24 8 13 1008.5 - 0.0
31/02:00pm 32.4 33.6 20.6 49 7.9 N 15 30 8 16 1008.7 - 0.0
31/01:30pm 31.2 32.0 19.9 51 7.4 NNW 15 24 8 13 1009.2 - 0.0
31/01:00pm 30.5 31.7 20.7 55 6.5 N 15 22 8 12 1009.6 - 0.0
31/12:30pm 32.6 33.5 21.5 52 7.5 NW 19 24 10 13 1010.2 - 0.0
31/12:00pm 29.6 31.5 20.5 58 6.0 N 11 19 6 10 1010.6 1010.6 0.0
31/11:30am 30.3 32.5 21.1 58 6.1 N 11 19 6 10 1010.9 - 0.0
31/11:00am 29.7 31.2 20.5 57 6.1 N 13 20 7 11 1011.3 - 0.0
31/10:30am 30.2 31.9 20.2 55 6.6 N 11 17 6 9 1011.5 - 0.0
31/10:00am 30.5 32.6 20.1 53 6.9 N 9 19 5 10 1011.6 - 0.0
31/09:30am 30.7 32.9 20.3 53 6.9 NNW 9 17 5 9 1011.7 - 0.0
31/09:00am 30.3 32.0 19.3 51 7.2 NNE 9 17 5 9 1011.5 1011.5 0.0
31/08:30am 29.0 31.6 21.2 62 5.2 NE 9 17 5 9 1011.2 - 0.0
31/08:00am 28.0 31.5 22.9 74 3.5 ESE 9 13 5 7 1011.0 - 0.0
31/07:30am 26.4 30.6 23.5 84 2.0 E 7 9 4 5 1010.7 - 0.0
31/07:00am 24.0 27.9 23.0 94 0.7 ESE 7 9 4 5 1010.2 - 0.0
31/06:30am 22.0 25.2 21.3 96 0.5 ESE 6 7 3 4 1009.9 - 0.0
31/06:00am 21.2 23.7 20.2 94 0.6 E 7 9 4 5 1009.6 1009.6 0.0
31/05:30am 21.4 25.2 20.2 93 0.8 CALM 0 0 0 0 1009.3 - 0.0
31/05:00am 21.9 25.9 20.5 92 0.9 CALM 0 0 0 0 1009.0 - 0.0
31/04:30am 22.5 26.3 21.0 91 1.0 S 2 6 1 3 1008.8 - 0.0
31/04:00am 22.8 25.9 21.1 90 1.1 S 6 7 3 4 1008.5 - 0.0
31/03:30am 22.9 25.8 21.0 89 1.2 S 7 9 4 5 1008.4 - 0.0
31/03:00am 23.0 25.7 20.7 87 1.5 S 7 9 4 5 1008.3 1008.3 0.0
31/02:30am 23.1 27.0 20.4 85 1.7 CALM 0 0 0 0 1008.6 - 0.0
31/02:00am 23.6 27.4 20.1 81 2.3 CALM 0 0 0 0 1008.7 - 0.0
31/01:30am 24.4 28.3 20.3 78 2.7 CALM 0 0 0 0 1008.9 - 0.0
31/01:00am 25.5 28.7 21.2 77 2.8 N 6 9 3 5 1009.0 - 0.0
31/12:30am 26.0 29.2 21.7 77 2.9 N 7 9 4 5 1009.0 - 0.0
31/12:00am 26.4 29.7 21.8 76 3.1 N 7 9 4 5 1009.2 1009.2 0.0
 
Date/Time
CST
Tmp

°C
App
Tmp
°C
Dew
Point
°C
Rel
Hum
%
Delta-T

°C
Wind Press
QNH
hPa
Press
MSL
hPa
Rain
since
9 am
mm
Dir
 
Spd
km/h
Gust
km/h
Spd
kts
Gust
kts
30/11:30pm 26.8 29.6 21.5 72 3.5 N 9 15 5 8 1009.2 - 0.0
30/11:00pm 26.9 29.6 21.4 72 3.7 N 9 15 5 8 1009.3 - 0.0
30/10:30pm 27.1 29.5 21.6 72 3.7 N 11 17 6 9 1009.3 - 0.0
30/10:00pm 27.1 29.5 21.6 72 3.7 N 11 20 6 11 1009.1 - 0.0
30/09:30pm 27.2 29.7 21.7 72 3.7 N 11 17 6 9 1008.8 - 0.0
30/09:00pm 27.3 29.6 22.0 73 3.6 NNW 13 19 7 10 1008.5 1008.5 0.0
30/08:30pm 27.4 29.6 21.9 72 3.7 N 13 22 7 12 1008.3 - 0.0
30/08:00pm 27.6 29.4 21.9 71 3.8 N 15 22 8 12 1008.3 - 0.0
30/07:30pm 27.6 29.4 21.9 71 3.8 N 15 26 8 14 1008.1 - 0.0
30/07:00pm 27.7 29.2 22.0 71 3.8 N 17 28 9 15 1007.8 - 0.0
30/06:30pm 28.1 29.7 21.4 67 4.5 N 15 24 8 13 1007.8 - 0.0
30/06:00pm 28.8 29.9 21.3 64 5.0 N 17 24 9 13 1007.6 1007.6 0.0
30/05:30pm 29.8 31.1 21.7 61 5.4 NNW 17 24 9 13 1007.6 - 0.0
30/05:00pm 30.7 32.1 21.8 59 6.0 NNW 17 26 9 14 1007.5 - 0.0
30/04:30pm 30.2 31.4 20.7 56 6.3 NNW 15 24 8 13 1007.5 - 0.0
30/04:00pm 30.5 31.6 20.4 54 6.7 NNW 15 22 8 12 1007.7 - 0.0
30/03:30pm 31.1 32.2 20.4 53 7.1 NNW 15 22 8 12 1008.1 - 0.0
30/03:00pm 31.0 32.4 20.3 53 7.1 NNW 13 20 7 11 1008.3 1008.3 0.0
30/02:30pm 31.4 32.5 20.4 52 7.3 NNW 15 28 8 15 1008.7 - 0.0
30/02:00pm 32.3 33.5 19.9 48 8.2 NNW 13 22 7 12 1008.9 - 0.0
30/01:30pm 31.1 32.3 19.1 48 7.8 N 11 19 6 10 1009.4 - 0.0
30/01:00pm 31.8 33.5 20.1 50 7.7 N 11 19 6 10 1009.9 - 0.0
30/12:30pm 31.2 33.2 20.8 54 6.9 N 11 26 6 14 1010.6 - 0.0
30/12:00pm 30.9 32.4 20.5 54 6.9 NNE 13 22 7 12 1011.1 1011.1 0.0
30/11:30am 30.4 31.6 20.6 55 6.5 N 15 26 8 14 1011.2 - 0.0
30/11:00am 30.8 32.1 20.1 53 7.1 NNE 13 20 7 11 1011.4 - 0.0
30/10:30am 31.6 33.5 20.5 51 7.4 N 11 20 6 11 1011.6 - 0.0
30/10:00am 30.6 32.5 20.5 54 6.7 N 11 17 6 9 1011.8 - 0.0
30/09:30am 30.1 31.4 20.1 55 6.6 NNE 13 19 7 10 1011.7 - 0.0
30/09:00am 29.2 31.1 19.8 57 6.2 N 9 15 5 8 1011.8 1011.8 0.0
30/08:30am 29.1 31.0 20.5 59 5.7 NE 11 20 6 11 1011.7 - 0.0
30/08:00am 27.6 30.4 21.6 70 4.0 ESE 9 11 5 6 1011.6 - 0.0
30/07:30am 26.3 29.8 22.2 78 2.8 ESE 7 9 4 5 1011.3 - 0.0
30/07:00am 24.0 27.5 21.9 88 1.4 ESE 6 9 3 5 1011.0 - 0.0
30/06:30am 22.2 25.0 20.8 92 0.9 E 7 9 4 5 1010.6 - 0.0
30/06:00am 21.9 24.5 20.5 92 0.9 E 7 9 4 5 1010.4 1010.4 0.0
30/05:30am 22.0 24.7 20.6 92 0.9 E 7 9 4 5 1010.0 - 0.0
30/05:00am 21.6 23.8 19.5 88 1.3 ESE 7 9 4 5 1009.8 - 0.0
30/04:30am 22.1 25.7 19.8 87 1.5 CALM 0 0 0 0 1009.4 - 0.0
30/04:00am 22.3 25.9 19.8 86 1.6 CALM 0 0 0 0 1009.4 - 0.0
30/03:30am 22.5 26.2 20.0 86 1.6 CALM 0 0 0 0 1009.3 - 0.0
30/03:00am 23.0 26.6 19.8 82 2.1 CALM 0 0 0 0 1009.6 - 0.0
30/02:30am 23.1 26.8 19.9 82 2.1 CALM 0 0 0 0 1009.8 - 0.0
30/02:00am 23.5 27.0 19.6 79 2.5 CALM 0 0 0 0 1010.2 - 0.0
30/01:30am 23.9 26.6 20.2 80 2.4 N 6 7 3 4 1010.4 - 0.0
30/01:00am 24.2 26.8 20.1 78 2.7 N 6 7 3 4 1010.8 - 0.0
30/12:30am 25.2 27.9 20.2 74 3.3 N 6 7 3 4 1011.2 - 0.0
30/12:00am 25.7 28.3 20.5 73 3.4 NNW 7 13 4 7 1011.4 1011.4 0.0
 
Date/Time
CST
Tmp

°C
App
Tmp
°C
Dew
Point
°C
Rel
Hum
%
Delta-T

°C
Wind Press
QNH
hPa
Press
MSL
hPa
Rain
since
9 am
mm
Dir
 
Spd
km/h
Gust
km/h
Spd
kts
Gust
kts
29/11:30pm 26.3 28.7 20.8 71 3.6 NNW 9 13 5 7 1011.3 - 0.0
29/11:00pm 26.6 29.0 20.9 71 3.8 N 9 13 5 7 1011.5 - 0.0
29/10:30pm 27.0 29.2 21.1 70 3.9 N 11 17 6 9 1011.5 - 0.0
29/10:00pm 27.1 29.2 20.9 69 4.1 N 11 20 6 11 1011.1 - 0.0
29/09:30pm 27.3 28.6 20.9 68 4.2 N 15 26 8 14 1010.5 - 0.0
29/09:00pm 27.4 28.1 20.5 66 4.5 N 17 24 9 13 1010.3 1010.3 0.0
29/08:30pm 27.5 29.1 21.5 70 4.0 N 15 26 8 14 1010.0 - 0.0
29/08:00pm 27.7 28.6 21.5 69 4.1 N 19 28 10 15 1009.7 - 0.0
29/07:30pm 27.7 29.4 22.4 73 3.6 N 17 30 9 16 1009.5 - 0.0
29/07:00pm 27.8 29.5 22.3 72 3.7 N 17 26 9 14 1009.0 - 0.0
29/06:30pm 28.3 29.9 22.1 69 4.2 N 17 28 9 15 1008.7 - 0.0
29/06:00pm 29.1 30.8 21.6 64 5.0 N 15 24 8 13 1008.4 1008.4 0.0
29/05:30pm 30.3 31.3 21.1 58 6.1 NNW 17 24 9 13 1008.3 - 0.0
29/05:00pm 31.4 32.1 20.4 52 7.3 N 17 24 9 13 1008.1 - 0.0
29/04:30pm 31.9 32.2 19.5 47 8.1 N 17 28 9 15 1008.1 - 0.0
29/04:00pm 31.8 31.7 18.7 45 8.5 N 17 26 9 14 1008.3 - 0.0
29/03:30pm 32.9 33.7 19.0 43 9.1 NNW 13 22 7 12 1008.4 - 0.0
29/03:00pm 32.2 32.6 19.1 45 8.6 N 15 24 8 13 1008.7 - 0.0
29/02:30pm 31.7 32.1 19.0 47 8.3 NNW 15 24 8 13 1009.0 - 0.0
29/02:00pm 32.3 33.1 19.9 48 8.2 N 15 26 8 14 1009.4 - 0.0
29/01:30pm 32.0 32.2 19.3 47 8.3 N 17 28 9 15 1009.8 - 0.0
29/01:00pm 32.5 33.1 21.0 50 7.7 N 19 30 10 16 1010.5 - 0.0
29/12:30pm 31.3 31.9 20.3 52 7.3 N 17 24 9 13 1011.2 - 0.0
29/12:00pm 30.6 31.0 19.9 52 7.0 N 17 28 9 15 1011.7 1011.7 0.0
29/11:30am 31.9 33.4 20.5 51 7.6 NNE 13 20 7 11 1012.1 - 0.0
29/11:00am 30.9 32.0 20.5 54 6.9 NNE 15 24 8 13 1012.4 - 0.0
29/10:30am 30.5 31.7 19.8 52 7.0 NE 13 20 7 11 1012.7 - 0.0
29/10:00am 30.6 31.9 20.8 56 6.5 E 15 26 8 14 1012.7 - 0.0
29/09:30am 30.1 31.3 20.6 56 6.3 ENE 15 26 8 14 1012.9 - 0.0
29/09:00am 29.8 30.6 20.6 57 6.1 NE 17 24 9 13 1012.9 1012.9 0.0
29/08:30am 28.2 28.4 20.2 62 5.2 ENE 19 24 10 13 1012.9 - 0.0
29/08:00am 28.4 29.6 20.7 63 5.1 NE 15 22 8 12 1012.5 - 0.0
29/07:30am 27.8 29.3 20.6 65 4.7 NE 13 19 7 10 1012.1 - 0.0
29/07:00am 27.0 29.2 21.1 70 3.9 NE 11 15 6 8 1011.8 - 0.0
29/06:30am 25.6 27.9 20.6 74 3.3 NNE 9 13 5 7 1011.6 - 0.0
29/06:00am 25.6 27.4 20.4 73 3.4 NNE 11 17 6 9 1011.3 1011.3 0.0
29/05:30am 26.0 27.5 20.6 72 3.5 N 13 20 7 11 1011.3 - 0.0
29/05:00am 26.0 27.8 20.3 71 3.7 NNE 11 17 6 9 1011.1 - 0.0
29/04:30am 25.7 27.6 20.5 73 3.4 NNE 11 15 6 8 1010.9 - 0.0
29/04:00am 25.6 27.2 19.9 70 3.7 NE 11 17 6 9 1010.7 - 0.0
29/03:30am 25.4 27.5 20.2 73 3.4 NNE 9 15 5 8 1010.7 - 0.0
29/03:00am 25.0 27.2 20.5 76 2.9 NE 9 13 5 7 1010.8 1010.8 0.0
29/02:30am 23.4 25.7 19.8 80 2.3 NE 7 11 4 6 1010.9 - 0.0
29/02:00am 23.4 25.6 19.5 79 2.5 NE 7 9 4 5 1011.0 - 0.0
29/01:30am 23.6 26.9 19.1 76 2.9 CALM 0 0 0 0 1011.2 - 0.0
29/01:00am 24.0 26.4 18.9 73 3.2 NNE 4 7 2 4 1011.3 - 0.0
29/12:30am 25.4 27.6 19.3 69 3.9 NNE 6 7 3 4 1011.4 - 0.0
29/12:00am 25.8 27.7 19.0 66 4.4 NE 7 9 4 5 1011.4 1011.4 0.0
 
Date/Time
CST
Tmp

°C
App
Tmp
°C
Dew
Point
°C
Rel
Hum
%
Delta-T

°C
Wind Press
QNH
hPa
Press
MSL
hPa
Rain
since
9 am
mm
Dir
 
Spd
km/h
Gust
km/h
Spd
kts
Gust
kts
28/11:30pm 26.4 28.2 18.8 63 4.9 NE 7 11 4 6 1011.3 - 0.0
28/11:00pm 26.7 28.5 20.3 68 4.2 NNE 11 15 6 8 1010.6 - 0.0

Latest Capital City Observations: Canberra | Sydney | Melbourne | Brisbane | Adelaide | Perth | Hobart | Darwin

Other Formats:

Comma delimited format used in spreadsheet applications
http://www.bom.gov.au/fwo/IDD60901/IDD60901.94127.axf

JavaScript Object Notation format (JSON) in row-major order
http://www.bom.gov.au/fwo/IDD60901/IDD60901.94127.json